Terminal Aerodrome Forecast
Issued by NWS

Home | Current Version | Previous Version | Text Only | Print | Product List | Glossary On
Versions: 1 2 3 4 5 6 7 8 9 10 11 12 13 14 15 16 17 18 19 20 21 22 23 24 25 26
000
FTUS45 KREV 210500
TAFTRK
TAF
KTRK 210524Z 2106/2206 VRB03KT P6SM SCT025 BKN080
     FM210900 VRB03KT P6SM VCSH SCT025 BKN070
     FM211600 14006KT P6SM VCSH SCT030 BKN070
     FM212200 28007KT P6SM SCT040 BKN090
     FM220200 VRB04KT P6SM SCT050 SCT090
      AMD NOT SKED 2106/2112=

USA.gov is the U.S. government's official web portal to all federal, state and local government web resources and services.